createdAt,value
2022-08-04T00:02:27.282Z,19.83
2022-08-04T00:05:00.484Z,19.71
2022-08-04T00:07:48.343Z,19.69
2022-08-04T00:10:18.833Z,19.62
2022-08-04T00:12:50.055Z,19.53
2022-08-04T00:15:17.978Z,19.48
2022-08-04T00:18:04.476Z,19.49
2022-08-04T00:20:33.988Z,19.47
2022-08-04T00:23:02.291Z,19.48
2022-08-04T00:25:29.117Z,19.48
2022-08-04T00:27:56.225Z,19.45
2022-08-04T00:30:22.915Z,19.42
2022-08-04T00:32:49.625Z,19.43
2022-08-04T00:35:17.665Z,19.38
2022-08-04T00:37:45.619Z,19.28
2022-08-04T00:40:12.632Z,19.24
2022-08-04T00:42:59.337Z,19.25
2022-08-04T00:46:15.885Z,19.26
2022-08-04T00:48:54.578Z,19.21
2022-08-04T00:51:30.227Z,19.18
2022-08-04T00:54:11.787Z,19.16
2022-08-04T00:57:30.045Z,19.13
2022-08-04T01:00:03.959Z,19.06
2022-08-04T01:02:48.091Z,18.94
2022-08-04T01:05:37.864Z,18.89
2022-08-04T01:08:23.394Z,18.86
2022-08-04T01:11:08.216Z,18.85
2022-08-04T01:14:00.795Z,18.81
2022-08-04T01:16:28.856Z,18.74
2022-08-04T01:19:35.219Z,18.75
2022-08-04T01:22:18.783Z,18.74
2022-08-04T01:24:59.494Z,18.75
2022-08-04T01:28:05.187Z,18.74
2022-08-04T01:30:34.606Z,18.68
2022-08-04T01:33:04.922Z,18.64
2022-08-04T01:35:48.877Z,18.58
2022-08-04T01:38:26.151Z,18.59
2022-08-04T01:40:56.908Z,18.54
2022-08-04T01:43:24.525Z,18.55
2022-08-04T01:45:58.050Z,18.54
2022-08-04T01:48:26.120Z,18.56
2022-08-04T01:50:54.368Z,18.55
2022-08-04T01:53:21.479Z,18.51
2022-08-04T01:55:55.598Z,18.52
2022-08-04T01:58:23.425Z,18.54
2022-08-04T02:01:08.946Z,18.57
2022-08-04T02:04:20.426Z,18.59
2022-08-04T02:07:03.800Z,18.61
2022-08-04T02:09:54.986Z,18.62
2022-08-04T02:12:26.082Z,18.62
2022-08-04T02:15:22.348Z,18.67
2022-08-04T02:17:57.262Z,18.70
2022-08-04T02:20:29.135Z,18.72
2022-08-04T02:23:43.151Z,18.71
2022-08-04T02:26:22.612Z,18.73
2022-08-04T02:29:03.765Z,18.76
2022-08-04T02:31:43.258Z,18.80
2022-08-04T02:34:13.877Z,18.86
2022-08-04T02:36:41.691Z,18.90
2022-08-04T02:39:09.869Z,18.92
2022-08-04T02:41:40.016Z,18.95
2022-08-04T02:44:10.350Z,18.99
2022-08-04T02:46:39.083Z,18.97
2022-08-04T02:49:07.862Z,19.00
2022-08-04T02:51:36.735Z,19.01
2022-08-04T02:54:06.790Z,19.04
2022-08-04T02:56:38.632Z,19.07
2022-08-04T02:59:08.260Z,19.10
2022-08-04T03:01:35.293Z,19.10
2022-08-04T03:04:28.797Z,19.09
2022-08-04T03:07:16.727Z,19.11
2022-08-04T03:10:14.480Z,19.10
2022-08-04T03:13:02.740Z,19.08
2022-08-04T03:16:08.226Z,19.08
2022-08-04T03:18:46.832Z,19.08
2022-08-04T03:21:19.328Z,19.08
2022-08-04T03:24:10.374Z,19.08
2022-08-04T03:26:48.989Z,19.12
2022-08-04T03:29:37.614Z,19.16
2022-08-04T03:32:31.939Z,19.19
2022-08-04T03:35:40.380Z,19.24
2022-08-04T03:38:45.155Z,19.27
2022-08-04T03:41:51.325Z,19.28
2022-08-04T03:44:20.864Z,19.33
2022-08-04T03:46:56.441Z,19.34
2022-08-04T03:49:35.065Z,19.38
2022-08-04T03:52:34.712Z,19.40
2022-08-04T03:55:25.403Z,19.45
2022-08-04T03:58:31.868Z,19.51
2022-08-04T04:02:01.133Z,19.56
2022-08-04T04:04:30.622Z,19.60
2022-08-04T04:07:12.383Z,19.65
2022-08-04T04:10:05.864Z,19.70
2022-08-04T04:12:41.738Z,19.78
2022-08-04T04:15:35.494Z,19.82
2022-08-04T04:18:33.760Z,19.87
2022-08-04T04:21:35.542Z,19.94
2022-08-04T04:24:32.846Z,20.02
2022-08-04T04:27:27.822Z,20.08
2022-08-04T04:30:19.170Z,20.15
2022-08-04T04:33:34.923Z,20.21
2022-08-04T04:36:25.279Z,20.29
2022-08-04T04:39:03.323Z,20.34
2022-08-04T04:41:41.626Z,20.39
2022-08-04T04:44:08.082Z,20.47
2022-08-04T04:47:06.914Z,20.51
2022-08-04T04:49:44.916Z,20.60
2022-08-04T04:52:27.213Z,20.66
2022-08-04T04:55:21.790Z,20.72
2022-08-04T04:57:54.770Z,20.77
2022-08-04T05:00:26.340Z,20.82
2022-08-04T05:03:00.405Z,20.87
2022-08-04T05:05:48.691Z,20.93
2022-08-04T05:08:45.317Z,21.00
2022-08-04T05:11:32.379Z,21.07
2022-08-04T05:14:36.506Z,21.14
2022-08-04T05:17:15.867Z,21.21
2022-08-04T05:20:04.438Z,21.25
2022-08-04T05:22:39.456Z,21.33
2022-08-04T05:25:17.687Z,21.37
2022-08-04T05:27:56.291Z,21.43
2022-08-04T05:30:27.275Z,21.49
2022-08-04T05:33:00.992Z,21.54
2022-08-04T05:35:53.988Z,21.62
2022-08-04T05:38:25.068Z,21.70
2022-08-04T05:40:52.897Z,21.81
2022-08-04T05:43:22.647Z,21.88
2022-08-04T05:45:51.578Z,21.95
2022-08-04T05:48:18.854Z,22.05
2022-08-04T05:50:46.559Z,22.17
2022-08-04T05:53:16.741Z,22.27
2022-08-04T05:55:49.033Z,22.35
2022-08-04T05:58:29.544Z,22.43
2022-08-04T06:00:58.387Z,22.50
2022-08-04T06:03:29.008Z,22.58
2022-08-04T06:05:57.693Z,22.65
2022-08-04T06:08:25.099Z,22.73
2022-08-04T06:10:54.555Z,22.78
2022-08-04T06:13:48.150Z,22.85
2022-08-04T06:16:30.311Z,22.92
2022-08-04T06:19:59.592Z,23.01
2022-08-04T06:21:50.000Z,23.09
2022-08-04T06:24:20.493Z,23.17
2022-08-04T06:26:49.543Z,23.24
2022-08-04T06:29:26.996Z,23.31
2022-08-04T06:32:27.210Z,23.39
2022-08-04T06:34:50.959Z,23.48
2022-08-04T06:37:41.215Z,23.55
2022-08-04T06:40:31.512Z,23.65
2022-08-04T06:42:56.121Z,23.73
2022-08-04T06:45:24.144Z,23.79
2022-08-04T06:47:51.112Z,23.86
2022-08-04T06:51:25.476Z,23.93
2022-08-04T06:53:06.898Z,24.03
2022-08-04T06:55:35.131Z,24.11
2022-08-04T06:58:03.536Z,24.18
2022-08-04T07:00:32.328Z,24.26
2022-08-04T07:03:00.919Z,24.34
2022-08-04T07:05:28.368Z,24.43
2022-08-04T07:07:57.096Z,24.52
2022-08-04T07:10:27.745Z,24.60
2022-08-04T07:12:56.615Z,24.67
2022-08-04T07:15:23.666Z,24.75
2022-08-04T07:17:52.292Z,24.84
2022-08-04T07:20:34.477Z,24.90
2022-08-04T07:23:04.128Z,24.97
2022-08-04T07:26:00.107Z,25.09
2022-08-04T07:28:17.806Z,25.20
2022-08-04T07:30:45.581Z,25.27
2022-08-04T07:33:12.599Z,25.36
2022-08-04T07:36:03.744Z,25.44
2022-08-04T07:38:27.691Z,25.53
2022-08-04T07:40:55.535Z,25.62
2022-08-04T07:43:23.172Z,25.71
2022-08-04T07:45:50.025Z,25.80
2022-08-04T07:48:18.897Z,25.89
2022-08-04T07:50:46.879Z,26.00
2022-08-04T07:53:54.851Z,26.09
2022-08-04T07:56:02.772Z,26.16
2022-08-04T07:58:30.244Z,26.25
2022-08-04T08:00:58.046Z,26.35
2022-08-04T08:03:27.324Z,26.45
2022-08-04T08:05:54.721Z,26.56
2022-08-04T08:08:40.989Z,26.66
2022-08-04T08:11:09.357Z,26.76
2022-08-04T08:13:37.054Z,26.84
2022-08-04T08:16:05.374Z,26.90
2022-08-04T08:18:32.028Z,27.03
2022-08-04T08:20:58.685Z,27.09
2022-08-04T08:23:26.515Z,27.15
2022-08-04T08:25:54.326Z,27.25
2022-08-04T08:28:20.997Z,27.33
2022-08-04T08:30:52.604Z,27.43
2022-08-04T08:33:21.207Z,27.59
2022-08-04T08:35:53.782Z,27.70
2022-08-04T08:38:33.581Z,27.81
2022-08-04T08:41:27.759Z,27.94
2022-08-04T08:44:37.516Z,28.05
2022-08-04T08:47:30.502Z,28.15
2022-08-04T08:50:47.566Z,28.28
2022-08-04T08:53:31.202Z,28.43
2022-08-04T08:56:30.941Z,28.55
2022-08-04T08:59:15.079Z,28.70
2022-08-04T09:01:57.322Z,28.82
2022-08-04T09:04:51.863Z,28.92
2022-08-04T09:07:30.455Z,28.93
2022-08-04T09:10:16.282Z,29.03
2022-08-04T09:12:57.890Z,29.17
2022-08-04T09:15:39.749Z,29.23
2022-08-04T09:18:31.346Z,29.34
2022-08-04T09:21:30.771Z,29.50
2022-08-04T09:24:05.044Z,29.68
2022-08-04T09:27:00.908Z,29.84
2022-08-04T09:29:45.743Z,29.98
2022-08-04T09:32:23.578Z,30.07
2022-08-04T09:35:20.431Z,30.21
2022-08-04T09:38:10.273Z,30.25
2022-08-04T09:40:58.851Z,30.38
2022-08-04T09:44:42.342Z,30.46
2022-08-04T09:46:27.844Z,30.57
2022-08-04T09:49:07.684Z,30.66
2022-08-04T09:51:59.027Z,30.75
2022-08-04T09:54:48.947Z,30.79
2022-08-04T09:57:15.500Z,30.94
2022-08-04T10:00:09.259Z,31.11
2022-08-04T10:02:44.365Z,31.24
2022-08-04T10:05:19.739Z,31.37
2022-08-04T10:08:16.423Z,31.51
2022-08-04T10:11:00.377Z,31.67
2022-08-04T10:13:53.361Z,31.80
2022-08-04T10:16:45.142Z,31.91
2022-08-04T10:19:35.311Z,31.86
2022-08-04T10:22:50.019Z,31.85
2022-08-04T10:26:06.251Z,31.91
2022-08-04T10:28:45.834Z,32.08
2022-08-04T10:31:20.858Z,32.25
2022-08-04T10:33:57.843Z,32.41
2022-08-04T10:36:30.327Z,32.53
2022-08-04T10:39:41.759Z,32.72
2022-08-04T10:42:03.500Z,32.85
2022-08-04T10:44:48.660Z,32.84
2022-08-04T10:47:20.178Z,32.72
2022-08-04T10:49:54.377Z,32.59
2022-08-04T10:52:33.797Z,32.63
2022-08-04T10:56:07.777Z,32.81
2022-08-04T10:58:47.792Z,33.07
2022-08-04T11:02:01.397Z,33.20
2022-08-04T11:04:35.556Z,33.19
2022-08-04T11:07:02.631Z,33.28
2022-08-04T11:09:31.674Z,33.45
2022-08-04T11:12:07.119Z,33.64
2022-08-04T11:14:36.798Z,33.84
2022-08-04T11:17:11.315Z,34.00
2022-08-04T11:19:53.285Z,34.16
2022-08-04T11:22:23.456Z,34.29
2022-08-04T11:25:03.233Z,34.46
2022-08-04T11:27:40.427Z,34.55
2022-08-04T11:30:08.961Z,34.68
2022-08-04T11:33:09.407Z,34.81
2022-08-04T11:35:44.563Z,34.88
2022-08-04T11:38:43.683Z,34.94
2022-08-04T11:41:18.706Z,34.99
2022-08-04T11:44:00.713Z,34.72
2022-08-04T11:46:44.097Z,34.44
2022-08-04T11:49:15.522Z,34.45
2022-08-04T11:51:44.538Z,34.50
2022-08-04T11:54:12.824Z,34.66
2022-08-04T11:56:39.688Z,34.65
2022-08-04T11:59:10.140Z,34.74
2022-08-04T12:01:44.432Z,34.78
2022-08-04T12:04:24.350Z,34.78
2022-08-04T12:07:33.052Z,34.74
2022-08-04T12:10:43.363Z,35.00
2022-08-04T12:13:31.716Z,35.14
2022-08-04T12:16:10.808Z,35.39
2022-08-04T12:18:47.300Z,35.40
2022-08-04T12:21:55.964Z,35.27
2022-08-04T12:24:33.547Z,35.38
2022-08-04T12:27:13.839Z,35.59
2022-08-04T12:29:41.560Z,35.69
2022-08-04T12:32:33.005Z,35.80
2022-08-04T12:35:21.822Z,35.77
2022-08-04T12:38:08.606Z,35.74
2022-08-04T12:40:46.976Z,35.86
2022-08-04T12:43:20.178Z,36.01
2022-08-04T12:45:49.833Z,36.08
2022-08-04T12:48:21.436Z,36.01
2022-08-04T12:50:51.204Z,36.08
2022-08-04T12:53:31.519Z,36.05
2022-08-04T12:56:01.716Z,35.82
2022-08-04T12:58:42.046Z,35.60
2022-08-04T13:02:10.155Z,35.63
2022-08-04T13:04:29.297Z,35.59
2022-08-04T13:07:10.763Z,35.56
2022-08-04T13:09:38.424Z,35.70
2022-08-04T13:12:13.718Z,35.98
2022-08-04T13:14:44.482Z,36.29
2022-08-04T13:17:12.260Z,36.21
2022-08-04T13:19:41.439Z,36.00
2022-08-04T13:22:09.256Z,36.11
2022-08-04T13:24:56.681Z,36.24
2022-08-04T13:27:25.838Z,36.48
2022-08-04T13:29:58.745Z,36.70
2022-08-04T13:32:31.021Z,36.96
2022-08-04T13:35:00.363Z,37.18
2022-08-04T13:37:38.868Z,37.44
2022-08-04T13:40:09.270Z,37.57
2022-08-04T13:42:38.964Z,37.75
2022-08-04T13:45:08.362Z,37.88
2022-08-04T13:47:38.227Z,37.97
2022-08-04T13:50:13.813Z,38.05
2022-08-04T13:52:42.820Z,37.83
2022-08-04T13:55:19.910Z,37.56
2022-08-04T13:57:52.375Z,37.62
2022-08-04T14:00:29.911Z,37.68
2022-08-04T14:03:23.281Z,38.04
2022-08-04T14:06:29.095Z,38.29
2022-08-04T14:08:58.710Z,38.51
2022-08-04T14:12:09.922Z,38.74
2022-08-04T14:14:30.000Z,39.08
2022-08-04T14:17:05.714Z,39.20
2022-08-04T14:20:07.246Z,39.56
2022-08-04T14:22:36.615Z,39.77
2022-08-04T14:25:16.738Z,39.99
2022-08-04T14:27:55.915Z,40.24
2022-08-04T14:30:36.936Z,40.33
2022-08-04T14:34:02.041Z,40.50
2022-08-04T14:36:04.133Z,40.70
2022-08-04T14:38:58.529Z,41.10
2022-08-04T14:41:31.530Z,41.44
2022-08-04T14:44:00.807Z,41.89
2022-08-04T14:46:36.279Z,42.11
2022-08-04T14:49:10.225Z,42.57
2022-08-04T14:51:59.014Z,42.56
2022-08-04T14:54:35.870Z,42.67
2022-08-04T14:57:06.466Z,43.69
2022-08-04T15:00:01.604Z,43.88
2022-08-04T15:02:30.515Z,43.80
2022-08-04T15:04:57.761Z,43.90
2022-08-04T15:07:24.797Z,44.15
2022-08-04T15:09:53.925Z,44.53
2022-08-04T15:12:21.206Z,44.90
2022-08-04T15:14:48.010Z,44.93
2022-08-04T15:17:29.202Z,45.41
2022-08-04T15:19:57.312Z,45.42
2022-08-04T15:22:24.071Z,45.92
2022-08-04T15:24:54.911Z,46.16
2022-08-04T15:27:26.612Z,46.22
2022-08-04T15:30:01.618Z,45.83
2022-08-04T15:32:32.062Z,46.41
2022-08-04T15:35:30.822Z,46.84
2022-08-04T15:38:24.058Z,47.37
2022-08-04T15:41:08.046Z,47.48
2022-08-04T15:43:40.436Z,47.52
2022-08-04T15:46:43.440Z,47.13
2022-08-04T15:48:56.085Z,47.04
2022-08-04T15:51:32.091Z,47.35
2022-08-04T15:54:03.483Z,47.49
2022-08-04T15:56:34.916Z,46.95
2022-08-04T15:59:01.455Z,46.37
2022-08-04T16:01:28.268Z,45.63
2022-08-04T16:03:59.894Z,42.33
2022-08-04T16:06:29.086Z,41.23
2022-08-04T16:09:04.124Z,40.59
2022-08-04T16:11:32.595Z,39.92
2022-08-04T16:13:59.632Z,39.34
2022-08-04T16:16:38.567Z,39.03
2022-08-04T16:19:35.329Z,38.53
2022-08-04T16:22:03.871Z,38.13
2022-08-04T16:24:36.235Z,37.77
2022-08-04T16:27:13.729Z,37.40
2022-08-04T16:29:47.925Z,36.90
2022-08-04T16:32:20.616Z,36.70
2022-08-04T16:34:55.477Z,36.42
2022-08-04T16:37:37.841Z,36.05
2022-08-04T16:40:39.003Z,35.84
2022-08-04T16:43:17.691Z,35.67
2022-08-04T16:45:47.110Z,35.47
2022-08-04T16:48:17.760Z,35.33
2022-08-04T16:51:06.442Z,35.28
2022-08-04T16:53:53.539Z,35.19
2022-08-04T16:56:29.588Z,35.21
2022-08-04T16:58:56.490Z,35.58
2022-08-04T17:01:33.787Z,35.86
2022-08-04T17:04:05.100Z,36.02
2022-08-04T17:06:40.234Z,35.71
2022-08-04T17:09:11.321Z,35.36
2022-08-04T17:11:38.117Z,35.30
2022-08-04T17:14:06.137Z,35.48
2022-08-04T17:16:38.311Z,35.61
2022-08-04T17:19:07.167Z,35.71
2022-08-04T17:21:52.429Z,35.63
2022-08-04T17:24:18.970Z,35.32
2022-08-04T17:26:54.527Z,35.07
2022-08-04T17:29:43.247Z,34.80
2022-08-04T17:32:20.799Z,34.47
2022-08-04T17:34:54.452Z,34.22
2022-08-04T17:37:41.208Z,34.10
2022-08-04T17:40:22.872Z,33.83
2022-08-04T17:44:02.979Z,33.58
2022-08-04T17:46:28.598Z,33.43
2022-08-04T17:49:09.048Z,33.24
2022-08-04T17:52:05.235Z,33.08
2022-08-04T17:54:36.566Z,32.83
2022-08-04T17:57:20.017Z,32.58
2022-08-04T18:02:39.064Z,32.15
2022-08-04T18:05:11.852Z,32.08
2022-08-04T18:08:39.101Z,31.94
2022-08-04T18:10:55.353Z,31.67
2022-08-04T18:13:27.402Z,31.59
2022-08-04T18:16:02.666Z,31.35
2022-08-04T18:18:29.870Z,31.13
2022-08-04T18:20:59.793Z,30.83
2022-08-04T18:23:32.141Z,30.57
2022-08-04T18:26:02.058Z,30.36
2022-08-04T18:28:33.073Z,30.14
2022-08-04T18:31:00.733Z,30.05
2022-08-04T18:33:39.489Z,29.99
2022-08-04T18:36:34.313Z,29.88
2022-08-04T18:38:58.333Z,29.80
2022-08-04T18:41:27.167Z,29.65
2022-08-04T18:43:56.737Z,29.46
2022-08-04T18:46:26.904Z,29.33
2022-08-04T18:48:54.591Z,29.03
2022-08-04T18:51:24.938Z,29.05
2022-08-04T18:53:58.959Z,28.91
2022-08-04T18:56:32.896Z,28.71
2022-08-04T18:59:10.557Z,28.61
2022-08-04T19:02:12.225Z,28.49
2022-08-04T19:04:32.458Z,28.20
2022-08-04T19:07:28.890Z,28.07
2022-08-04T19:09:52.045Z,27.92
2022-08-04T19:12:26.569Z,27.80
2022-08-04T19:15:08.427Z,27.72
2022-08-04T19:17:54.197Z,27.61
2022-08-04T19:20:26.328Z,27.46
2022-08-04T19:24:29.484Z,27.31
2022-08-04T19:25:58.705Z,27.11
2022-08-04T19:28:29.818Z,26.98
2022-08-04T19:30:57.686Z,26.92
2022-08-04T19:33:25.368Z,26.81
2022-08-04T19:35:52.418Z,26.63
2022-08-04T19:38:20.638Z,26.36
2022-08-04T19:40:50.682Z,26.39
2022-08-04T19:43:20.886Z,26.39
2022-08-04T19:45:51.170Z,26.26
2022-08-04T19:48:19.982Z,26.22
2022-08-04T19:50:48.259Z,26.10
2022-08-04T19:53:19.562Z,26.07
2022-08-04T19:55:49.643Z,25.94
2022-08-04T19:58:16.870Z,25.93
2022-08-04T20:00:44.802Z,25.80
2022-08-04T20:03:20.275Z,25.68
2022-08-04T20:05:53.475Z,25.54
2022-08-04T20:08:24.168Z,25.50
2022-08-04T20:10:52.311Z,25.39
2022-08-04T20:13:25.514Z,25.34
2022-08-04T20:16:04.719Z,25.34
2022-08-04T20:18:36.061Z,25.29
2022-08-04T20:21:11.253Z,25.17
2022-08-04T20:23:47.749Z,25.07
2022-08-04T20:26:15.447Z,24.96
2022-08-04T20:28:42.250Z,24.91
2022-08-04T20:31:18.447Z,24.84
2022-08-04T20:33:49.090Z,24.76
2022-08-04T20:36:20.276Z,24.75
2022-08-04T20:38:51.914Z,24.67
2022-08-04T20:41:20.799Z,24.61
2022-08-04T20:43:49.756Z,24.50
2022-08-04T20:46:29.290Z,24.32
2022-08-04T20:48:56.338Z,24.25
2022-08-04T20:51:32.193Z,24.22
2022-08-04T20:54:01.974Z,24.10
2022-08-04T20:56:30.522Z,24.02
2022-08-04T20:58:59.437Z,23.86
2022-08-04T21:01:29.570Z,23.84
2022-08-04T21:04:27.483Z,23.74
2022-08-04T21:06:55.396Z,23.68
2022-08-04T21:09:26.531Z,23.64
2022-08-04T21:12:06.982Z,23.56
2022-08-04T21:14:34.580Z,23.48
2022-08-04T21:17:02.999Z,23.40
2022-08-04T21:19:31.700Z,23.27
2022-08-04T21:21:59.166Z,23.22
2022-08-04T21:24:26.571Z,23.23
2022-08-04T21:26:56.788Z,23.19
2022-08-04T21:29:34.541Z,23.14
2022-08-04T21:32:07.726Z,23.11
2022-08-04T21:34:39.618Z,23.02
2022-08-04T21:39:59.325Z,22.85
2022-08-04T21:42:42.506Z,22.72
2022-08-04T21:45:09.913Z,22.64
2022-08-04T21:47:46.561Z,22.47
2022-08-04T21:50:19.940Z,22.47
2022-08-04T21:52:47.644Z,22.46
2022-08-04T21:55:14.182Z,22.41
2022-08-04T21:57:42.014Z,22.35
2022-08-04T22:00:10.815Z,22.21
2022-08-04T22:02:44.820Z,22.24
2022-08-04T22:05:11.882Z,22.16
2022-08-04T22:07:50.539Z,22.07
2022-08-04T22:10:18.463Z,21.95
2022-08-04T22:12:52.109Z,21.86
2022-08-04T22:16:02.773Z,21.76
2022-08-04T22:18:05.568Z,21.68
2022-08-04T22:20:32.108Z,21.55
2022-08-04T22:23:15.349Z,21.49
2022-08-04T22:25:42.163Z,21.38
2022-08-04T22:28:11.624Z,21.22
2022-08-04T22:30:48.325Z,21.23
2022-08-04T22:33:18.921Z,21.21
2022-08-04T22:35:49.936Z,21.22
2022-08-04T22:38:36.978Z,21.19
2022-08-04T22:41:17.696Z,21.12
2022-08-04T22:43:45.986Z,21.02
2022-08-04T22:46:26.811Z,20.99
2022-08-04T22:48:54.405Z,20.89
2022-08-04T22:51:22.444Z,20.88
2022-08-04T22:53:50.201Z,20.78
2022-08-04T22:56:38.124Z,20.74
2022-08-04T22:59:04.815Z,20.70
2022-08-04T23:01:57.963Z,20.71
2022-08-04T23:04:17.911Z,20.72
2022-08-04T23:06:44.453Z,20.68
2022-08-04T23:09:15.993Z,20.60
2022-08-04T23:11:43.770Z,20.58
2022-08-04T23:14:10.536Z,20.52
2022-08-04T23:16:40.882Z,20.51
2022-08-04T23:19:12.159Z,20.46
2022-08-04T23:21:47.810Z,20.37
2022-08-04T23:24:29.761Z,20.22
2022-08-04T23:26:58.023Z,20.24
2022-08-04T23:29:25.186Z,20.15
2022-08-04T23:31:59.729Z,20.14
2022-08-04T23:34:29.179Z,20.13
2022-08-04T23:36:56.282Z,20.16
2022-08-04T23:39:25.886Z,20.07
2022-08-04T23:42:15.002Z,20.08
2022-08-04T23:44:47.354Z,20.01
2022-08-04T23:48:15.932Z,19.99
2022-08-04T23:50:00.626Z,20.06
2022-08-04T23:52:29.621Z,20.03
2022-08-04T23:55:00.691Z,20.03
2022-08-04T23:58:02.263Z,19.99
